Time;durP1;ratioP1;P1;durP2;ratioP2;P2;SDS_P1;SDS_P2;PMS_P1;PMS_P2;Temp;Humidity;BMP_temperature;BMP_pressure;BME280_temperature;BME280_humidity;BME280_pressure;Samples;Min_cycle;Max_cycle;Signal;HPM_P1;HPM_P2
2023/10/29 00:01:17;;;;;;;6.53;5.60;;;;;;;11.20;74.60;98309.72;5107746;28;20050;-71
2023/10/29 00:03:45;;;;;;;7.85;5.60;;;;;;;11.16;74.18;98314.41;5107722;28;20044;-71
2023/10/29 00:06:12;;;;;;;6.63;5.47;;;;;;;11.07;74.53;98316.88;5107432;28;20044;-70
2023/10/29 00:08:39;;;;;;;8.10;6.43;;;;;;;11.07;74.47;98323.03;5107132;28;20070;-71
2023/10/29 00:11:05;;;;;;;6.88;5.63;;;;;;;10.83;74.19;98291.22;5107054;28;20226;-71
2023/10/29 00:13:32;;;;;;;7.80;5.75;;;;;;;11.02;74.21;98321.69;5107570;28;20191;-71
2023/10/29 00:15:59;;;;;;;7.35;5.75;;;;;;;10.98;74.29;98318.41;5106104;28;20097;-71
2023/10/29 00:18:26;;;;;;;7.80;5.65;;;;;;;11.02;74.08;98317.22;5106435;28;20055;-71
2023/10/29 00:20:54;;;;;;;6.95;5.60;;;;;;;11.04;73.88;98323.25;5107347;28;20040;-71
2023/10/29 00:23:20;;;;;;;7.25;5.18;;;;;;;10.98;74.17;98323.69;5107088;28;20044;-71
2023/10/29 00:25:47;;;;;;;6.93;5.45;;;;;;;11.02;73.98;98330.47;5105944;28;20056;-71
2023/10/29 00:28:15;;;;;;;7.13;5.60;;;;;;;10.92;73.91;98310.91;5106746;28;20115;-71
2023/10/29 00:30:41;;;;;;;7.63;5.32;;;;;;;10.98;74.52;98330.81;5105895;28;20058;-71
2023/10/29 00:33:08;;;;;;;6.45;5.70;;;;;;;10.89;74.69;98322.56;5106597;28;20123;-71
2023/10/29 00:35:35;;;;;;;6.68;5.85;;;;;;;10.90;74.78;98311.00;5106702;28;20044;-72
2023/10/29 00:38:03;;;;;;;6.40;5.28;;;;;;;10.90;74.96;98318.97;5106726;28;20108;-71
2023/10/29 00:40:30;;;;;;;7.25;5.63;;;;;;;10.91;74.97;98319.81;5106030;28;20040;-71
2023/10/29 00:42:57;;;;;;;9.88;6.28;;;;;;;10.90;74.99;98324.25;5106604;28;20347;-71
2023/10/29 00:45:24;;;;;;;7.50;5.53;;;;;;;10.86;75.24;98324.59;5106607;28;20051;-72
2023/10/29 00:47:52;;;;;;;6.97;5.47;;;;;;;10.85;75.37;98315.81;5106288;28;20113;-72
2023/10/29 00:50:19;;;;;;;6.88;5.70;;;;;;;10.82;75.46;98326.63;5106498;28;20040;-71
2023/10/29 00:52:46;;;;;;;8.93;5.95;;;;;;;10.83;75.36;98328.31;5106469;28;20097;-71
2023/10/29 00:55:15;;;;;;;6.97;5.55;;;;;;;10.76;75.79;98315.59;5106470;28;20062;-71
2023/10/29 00:57:42;;;;;;;7.00;6.00;;;;;;;10.78;75.76;98334.91;5105297;28;20044;-71
2023/10/29 01:00:10;;;;;;;6.03;4.90;;;;;;;10.76;76.03;98316.44;5104876;28;20048;-71
2023/10/29 01:02:37;;;;;;;8.20;5.75;;;;;;;10.77;75.72;98326.13;5106334;28;20288;-71
2023/10/29 01:05:05;;;;;;;6.72;5.43;;;;;;;10.71;75.80;98320.38;5088627;28;20322;-71
2023/10/29 01:07:32;;;;;;;5.82;5.10;;;;;;;10.71;75.78;98328.31;5106487;28;20044;-71
2023/10/29 01:09:59;;;;;;;6.90;5.22;;;;;;;10.76;75.75;98326.19;5106260;28;20043;-71
2023/10/29 01:12:28;;;;;;;6.97;5.18;;;;;;;10.68;75.92;98328.53;5105656;28;20192;-71
2023/10/29 01:14:54;;;;;;;7.00;4.97;;;;;;;10.15;75.96;98251.94;5106402;28;20060;-71
2023/10/29 01:17:23;;;;;;;5.78;5.18;;;;;;;10.62;76.19;98329.81;5104905;28;20044;-70
2023/10/29 01:19:51;;;;;;;5.57;4.55;;;;;;;10.67;75.98;98332.16;5104987;28;20085;-71
2023/10/29 01:22:18;;;;;;;7.15;5.22;;;;;;;9.96;76.30;98217.16;5106308;28;20102;-71
2023/10/29 01:24:44;;;;;;;6.88;5.18;;;;;;;10.40;76.31;98288.13;5105997;28;20040;-71
2023/10/29 01:27:11;;;;;;;7.20;5.93;;;;;;;10.56;76.37;98311.72;5105351;28;20040;-71
2023/10/29 01:29:40;;;;;;;5.75;4.80;;;;;;;10.58;76.42;98315.09;5105651;28;20051;-72
2023/10/29 01:32:07;;;;;;;5.97;5.13;;;;;;;10.56;76.25;98317.88;5104576;28;20161;-71
2023/10/29 01:34:33;;;;;;;7.07;4.78;;;;;;;10.55;76.22;98323.28;5105858;28;20067;-71
2023/10/29 01:37:00;;;;;;;5.93;5.18;;;;;;;10.52;76.27;98334.94;5105089;28;20043;-72
2023/10/29 01:39:27;;;;;;;7.35;5.50;;;;;;;10.53;75.86;98322.53;5104967;28;20044;-71
2023/10/29 01:41:55;;;;;;;6.20;4.40;;;;;;;10.49;75.92;98313.13;5104877;28;20097;-72
2023/10/29 01:44:23;;;;;;;6.65;5.07;;;;;;;10.46;75.86;98319.47;5105467;28;20101;-71
2023/10/29 01:46:51;;;;;;;6.03;5.07;;;;;;;10.42;76.09;98318.00;5105992;28;20130;-71
2023/10/29 01:49:18;;;;;;;6.25;5.35;;;;;;;10.43;76.05;98308.25;5105959;28;20036;-72
2023/10/29 01:51:44;;;;;;;6.38;4.80;;;;;;;10.41;76.11;98311.00;5104473;28;20044;-71
2023/10/29 01:54:11;;;;;;;11.48;7.53;;;;;;;10.34;74.97;98269.19;5104541;28;20235;-72
2023/10/29 01:56:39;;;;;;;7.43;6.32;;;;;;;10.50;74.61;98310.34;5105944;28;20048;-71
2023/10/29 01:59:05;;;;;;;6.50;5.72;;;;;;;10.47;74.75;98315.88;5105626;28;20066;-71
2023/10/29 02:01:32;;;;;;;8.10;4.95;;;;;;;10.35;74.91;98314.09;5105235;28;20051;-71
2023/10/29 02:04:00;;;;;;;7.43;4.75;;;;;;;10.12;75.15;98289.22;5105551;28;20040;-71
2023/10/29 02:06:27;;;;;;;5.60;4.72;;;;;;;10.17;74.87;98318.03;5105618;28;20325;-72
2023/10/29 02:08:54;;;;;;;5.68;4.80;;;;;;;10.22;75.06;98313.25;5105196;28;20043;-72
2023/10/29 02:11:20;;;;;;;7.75;5.07;;;;;;;10.16;74.94;98314.53;5105200;28;20036;-72
2023/10/29 02:13:47;;;;;;;7.93;5.55;;;;;;;10.14;74.82;98321.75;5105489;28;20048;-72
2023/10/29 02:16:14;;;;;;;6.78;5.03;;;;;;;10.25;74.08;98326.28;5105124;28;20059;-72
2023/10/29 02:18:40;;;;;;;6.22;4.78;;;;;;;10.14;74.56;98326.19;5105454;28;20197;-72
2023/10/29 02:21:08;;;;;;;5.65;4.90;;;;;;;9.94;74.56;98295.81;5105360;28;20082;-72
2023/10/29 02:23:37;;;;;;;5.90;4.78;;;;;;;9.81;74.06;98272.00;5105414;28;20048;-73
2023/10/29 02:26:04;;;;;;;6.35;4.70;;;;;;;10.12;74.11;98336.03;5104262;28;20051;-73
2023/10/29 02:28:31;;;;;;;6.60;5.55;;;;;;;10.23;73.43;98337.00;5104291;28;20040;-72
2023/10/29 02:30:58;;;;;;;7.32;5.78;;;;;;;9.77;73.63;98275.81;5104915;28;20304;-72
2023/10/29 02:33:25;;;;;;;6.60;5.07;;;;;;;10.01;74.23;98335.94;5105070;28;20312;-72
2023/10/29 02:35:51;;;;;;;5.50;4.60;;;;;;;10.08;74.29;98334.56;5105040;28;20250;-73
2023/10/29 02:38:18;;;;;;;6.60;4.82;;;;;;;10.03;74.09;98331.38;5105272;28;20040;-73
2023/10/29 02:40:47;;;;;;;7.07;4.40;;;;;;;10.11;73.84;98329.91;5105120;28;20040;-72
2023/10/29 02:43:14;;;;;;;5.47;4.32;;;;;;;10.01;74.16;98326.19;5104885;28;20093;-72
2023/10/29 02:45:41;;;;;;;5.85;4.82;;;;;;;10.08;73.86;98324.81;5103992;28;20308;-72
2023/10/29 02:48:08;;;;;;;5.75;4.85;;;;;;;10.02;73.93;98327.88;5105192;28;20108;-72
2023/10/29 02:50:37;;;;;;;7.22;5.68;;;;;;;9.16;74.29;98256.09;5105131;28;20051;-72
2023/10/29 02:53:04;;;;;;;6.93;6.10;;;;;;;9.91;74.70;98325.13;5103966;28;20044;-72
2023/10/29 02:55:30;;;;;;;7.15;5.50;;;;;;;9.85;75.45;98331.69;5107448;28;20055;-72
2023/10/29 02:57:58;;;;;;;8.65;6.25;;;;;;;9.81;75.54;98330.22;5108925;28;20044;-72
2023/10/29 03:00:25;;;;;;;8.55;6.75;;;;;;;9.84;75.85;98334.44;5108290;28;20044;-72
2023/10/29 03:02:52;;;;;;;7.82;6.68;;;;;;;9.63;76.87;98337.59;5108285;28;20085;-72
2023/10/29 03:05:19;;;;;;;10.50;7.18;;;;;;;9.42;78.18;98341.69;5108280;28;20089;-72
2023/10/29 03:07:45;;;;;;;11.23;7.47;;;;;;;9.22;79.05;98337.69;5108511;28;20089;-73
2023/10/29 03:10:12;;;;;;;7.88;6.47;;;;;;;9.36;78.77;98334.13;5108704;28;20097;-72
2023/10/29 03:12:39;;;;;;;6.90;6.18;;;;;;;9.59;77.39;98333.47;5108423;28;20055;-72
2023/10/29 03:15:08;;;;;;;7.63;6.55;;;;;;;9.66;76.86;98346.28;5107240;28;20081;-72
2023/10/29 03:17:35;;;;;;;8.32;6.90;;;;;;;9.49;77.25;98352.69;5108543;28;20111;-72
2023/10/29 03:20:02;;;;;;;7.10;6.15;;;;;;;9.54;77.26;98350.59;5107931;28;20043;-71
2023/10/29 03:22:29;;;;;;;10.65;6.93;;;;;;;9.59;77.44;98345.84;5108008;28;20099;-72
2023/10/29 03:24:56;;;;;;;7.82;7.03;;;;;;;9.51;77.52;98340.22;5107011;28;20048;-72
2023/10/29 03:27:22;;;;;;;8.60;6.57;;;;;;;9.58;77.05;98336.22;5106896;28;20036;-72
2023/10/29 03:29:49;;;;;;;7.88;6.32;;;;;;;9.65;76.99;98342.78;5108039;28;20071;-72
2023/10/29 03:32:18;;;;;;;7.32;6.32;;;;;;;9.66;76.75;98336.53;5107735;28;20181;-72
2023/10/29 03:34:44;;;;;;;7.53;6.55;;;;;;;9.74;76.34;98339.50;5106856;28;20070;-72
2023/10/29 03:37:11;;;;;;;7.88;6.32;;;;;;;9.69;76.20;98343.41;5107949;28;20301;-72
2023/10/29 03:39:38;;;;;;;7.80;7.00;;;;;;;9.62;76.55;98348.28;5106762;28;20273;-72
2023/10/29 03:42:05;;;;;;;8.23;7.35;;;;;;;9.41;77.39;98341.78;5107680;28;20081;-72
2023/10/29 03:44:32;;;;;;;7.65;6.90;;;;;;;9.24;78.24;98333.13;5106632;28;20040;-72
2023/10/29 03:46:59;;;;;;;7.97;7.10;;;;;;;9.11;78.82;98334.84;5107597;28;20048;-72
2023/10/29 03:49:27;;;;;;;7.90;7.15;;;;;;;8.86;78.17;98271.34;5106513;28;20040;-73
2023/10/29 03:51:54;;;;;;;7.40;6.70;;;;;;;9.16;78.05;98294.91;5107285;28;20220;-72
2023/10/29 03:54:21;;;;;;;7.65;6.28;;;;;;;9.46;77.47;98326.44;5106350;28;20052;-72
2023/10/29 03:56:47;;;;;;;7.30;6.60;;;;;;;9.38;77.38;98341.94;5107378;28;20044;-73
2023/10/29 03:59:14;;;;;;;8.48;7.57;;;;;;;9.04;78.38;98338.84;5107111;28;20238;-72
2023/10/29 04:01:41;;;;;;;7.63;6.82;;;;;;;9.00;78.82;98334.69;5107230;28;20075;-72
2023/10/29 04:04:08;;;;;;;8.18;6.30;;;;;;;9.21;78.55;98338.63;5107039;28;20219;-72
2023/10/29 04:06:36;;;;;;;7.45;6.70;;;;;;;9.15;79.04;98336.34;5107376;28;20355;-73
2023/10/29 04:09:02;;;;;;;8.13;7.22;;;;;;;9.03;80.42;98333.66;5107012;28;20052;-73
2023/10/29 04:11:29;;;;;;;7.93;7.07;;;;;;;9.20;79.31;98338.72;5107244;28;20319;-73
2023/10/29 04:13:56;;;;;;;9.27;8.27;;;;;;;9.44;78.45;98328.34;5106945;28;20040;-72
2023/10/29 04:16:22;;;;;;;8.07;7.28;;;;;;;9.42;78.68;98333.75;5106004;28;20089;-72
2023/10/29 04:18:49;;;;;;;9.82;7.75;;;;;;;9.36;78.96;98333.28;5106831;28;20353;-72
2023/10/29 04:21:16;;;;;;;9.40;6.85;;;;;;;9.45;78.51;98330.03;5107054;28;20066;-72
2023/10/29 04:23:44;;;;;;;8.45;7.60;;;;;;;9.49;78.58;98332.38;5107193;28;20040;-72
2023/10/29 04:26:10;;;;;;;7.88;7.05;;;;;;;9.46;78.88;98339.69;5107122;28;20097;-72
2023/10/29 04:28:37;;;;;;;8.23;7.43;;;;;;;9.51;78.42;98346.34;5107185;28;20093;-72
2023/10/29 04:31:04;;;;;;;9.38;7.80;;;;;;;9.51;78.77;98346.34;5106684;28;20043;-72
2023/10/29 04:33:31;;;;;;;9.23;8.10;;;;;;;9.49;79.79;98350.06;5106971;28;20044;-72
2023/10/29 04:35:57;;;;;;;8.98;7.35;;;;;;;9.50;79.33;98339.38;5105794;28;20043;-72
2023/10/29 04:38:24;;;;;;;10.23;8.35;;;;;;;9.53;79.41;98346.25;5107127;28;20055;-72
2023/10/29 04:40:52;;;;;;;9.88;7.78;;;;;;;9.56;78.78;98338.97;5106704;28;20040;-72
2023/10/29 04:43:19;;;;;;;10.18;7.95;;;;;;;9.55;78.54;98336.41;5106176;28;20051;-72
2023/10/29 04:45:45;;;;;;;9.98;8.13;;;;;;;9.50;79.78;98327.94;5106974;28;20062;-72
2023/10/29 04:48:12;;;;;;;11.43;8.20;;;;;;;9.45;80.07;98330.03;5106635;28;20062;-73
2023/10/29 04:50:39;;;;;;;9.32;8.40;;;;;;;9.44;80.06;98333.66;5106383;28;20350;-72
2023/10/29 04:53:05;;;;;;;10.27;8.45;;;;;;;9.50;79.48;98318.22;5106290;28;20052;-72
2023/10/29 04:55:32;;;;;;;9.30;7.53;;;;;;;9.24;79.81;98277.63;5106550;28;20200;-72
2023/10/29 04:58:00;;;;;;;9.07;8.00;;;;;;;9.45;80.02;98314.19;5105640;28;20047;-72
2023/10/29 05:00:27;;;;;;;9.63;7.57;;;;;;;9.42;80.14;98314.38;5106396;28;20052;-72
2023/10/29 05:02:53;;;;;;;9.10;7.90;;;;;;;9.45;79.89;98306.25;5106366;28;20040;-73
2023/10/29 05:05:20;;;;;;;9.05;7.47;;;;;;;9.47;79.95;98299.06;5105304;28;20036;-72
2023/10/29 05:07:47;;;;;;;10.27;8.63;;;;;;;9.45;80.09;98299.16;5105184;28;20364;-72
2023/10/29 05:10:14;;;;;;;11.68;9.10;;;;;;;9.33;80.99;98305.22;5106320;28;20090;-72
2023/10/29 05:12:41;;;;;;;9.80;8.10;;;;;;;9.31;81.19;98299.19;5106253;28;20040;-72
2023/10/29 05:15:12;;;;;;;10.15;8.32;;;;;;;9.32;81.05;98290.31;5106316;28;20200;-72
2023/10/29 05:17:41;;;;;;;10.10;9.05;;;;;;;9.27;81.43;98285.34;5105762;28;20040;-72
2023/10/29 05:20:10;;;;;;;11.55;9.95;;;;;;;9.17;81.87;98289.50;5105048;28;20078;-72
2023/10/29 05:22:37;;;;;;;11.40;9.63;;;;;;;9.34;80.88;98295.50;5105782;28;20040;-72
2023/10/29 05:25:04;;;;;;;9.73;8.32;;;;;;;9.46;80.19;98300.84;5105863;28;20323;-72
2023/10/29 05:27:31;;;;;;;10.70;9.02;;;;;;;9.43;80.09;98309.00;5106104;28;20040;-72
2023/10/29 05:29:59;;;;;;;10.05;9.05;;;;;;;9.42;80.19;98303.81;5104933;28;20056;-73
2023/10/29 05:32:27;;;;;;;10.63;8.73;;;;;;;9.38;80.30;98297.00;5104871;28;20036;-72
2023/10/29 05:34:54;;;;;;;10.82;9.38;;;;;;;9.37;80.31;98313.81;5106318;28;20043;-72
2023/10/29 05:37:20;;;;;;;11.05;9.60;;;;;;;9.32;81.26;98322.03;5105099;28;20039;-72
2023/10/29 05:39:47;;;;;;;10.75;8.90;;;;;;;9.21;80.52;98304.25;5106195;28;20300;-72
2023/10/29 05:42:14;;;;;;;10.88;9.02;;;;;;;8.12;80.10;98113.34;5105770;28;20052;-73
2023/10/29 05:44:41;;;;;;;11.18;9.93;;;;;;;9.46;79.87;98337.03;5105646;28;20203;-72
2023/10/29 05:47:07;;;;;;;11.75;8.90;;;;;;;9.44;80.21;98329.19;5104734;28;20043;-72
2023/10/29 05:49:36;;;;;;;10.23;9.13;;;;;;;9.44;80.21;98323.91;5104743;28;20119;-72
2023/10/29 05:52:02;;;;;;;11.43;9.40;;;;;;;9.52;79.53;98320.75;5106049;28;20040;-72
2023/10/29 05:54:29;;;;;;;11.25;9.07;;;;;;;9.53;79.19;98327.75;5105473;28;20177;-73
2023/10/29 05:56:56;;;;;;;12.43;10.05;;;;;;;9.54;79.21;98334.72;5105396;28;20300;-72
2023/10/29 05:59:23;;;;;;;10.30;9.20;;;;;;;9.52;79.69;98326.88;5105789;28;20047;-72
2023/10/29 06:01:50;;;;;;;11.57;9.15;;;;;;;9.44;80.00;98328.34;5106177;28;20063;-72
2023/10/29 06:04:16;;;;;;;9.05;8.15;;;;;;;9.43;80.26;98319.56;5105453;28;20361;-72
2023/10/29 06:06:45;;;;;;;10.55;9.25;;;;;;;9.17;80.62;98300.09;5105339;28;20044;-72
2023/10/29 06:09:11;;;;;;;10.88;8.18;;;;;;;9.41;80.50;98329.41;5105676;28;20044;-72
2023/10/29 06:11:41;;;;;;;10.02;9.00;;;;;;;9.37;80.56;98329.69;5105123;28;20086;-72
2023/10/29 06:14:08;;;;;;;10.80;8.35;;;;;;;9.30;81.12;98331.88;5105622;28;20064;-72
2023/10/29 06:16:34;;;;;;;9.98;8.38;;;;;;;9.21;81.70;98325.41;5104709;28;20082;-72
2023/10/29 06:19:02;;;;;;;9.88;8.77;;;;;;;9.21;81.69;98328.03;5105546;28;20052;-72
2023/10/29 06:21:29;;;;;;;10.55;8.52;;;;;;;9.29;81.13;98331.03;5104339;28;20338;-72
2023/10/29 06:23:57;;;;;;;9.88;8.77;;;;;;;9.32;81.48;98324.69;5105507;28;20311;-72
2023/10/29 06:26:24;;;;;;;9.27;8.20;;;;;;;9.30;81.61;98331.88;5105242;28;20112;-72
2023/10/29 06:28:51;;;;;;;8.70;7.80;;;;;;;9.31;81.81;98329.13;5105560;28;20086;-72
2023/10/29 06:31:17;;;;;;;10.30;9.25;;;;;;;9.06;83.43;98334.31;5108626;28;20109;-72
2023/10/29 06:33:44;;;;;;;9.20;8.25;;;;;;;9.10;83.45;98341.09;5109168;28;20059;-72
2023/10/29 06:36:11;;;;;;;8.65;7.55;;;;;;;9.24;83.02;98329.63;5108296;28;20127;-72
2023/10/29 06:38:38;;;;;;;7.13;6.43;;;;;;;9.19;82.95;98329.91;5108942;28;20040;-72
2023/10/29 06:41:06;;;;;;;8.50;7.57;;;;;;;9.16;83.00;98335.41;5108168;28;20050;-72
2023/10/29 06:43:34;;;;;;;7.90;7.10;;;;;;;9.28;82.24;98341.72;5108745;28;20086;-72
2023/10/29 06:46:01;;;;;;;8.32;7.53;;;;;;;9.11;82.55;98313.72;5109265;28;20048;-72
2023/10/29 06:48:28;;;;;;;7.38;6.45;;;;;;;8.75;82.40;98258.81;5108715;28;20260;-72
2023/10/29 06:50:54;;;;;;;10.13;7.80;;;;;;;9.23;82.09;98335.88;5108875;28;20036;-72
2023/10/29 06:53:21;;;;;;;7.70;7.00;;;;;;;9.09;82.07;98312.09;5108910;28;20230;-72
2023/10/29 06:55:48;;;;;;;8.27;7.00;;;;;;;9.15;82.67;98339.00;5108098;28;20062;-72
2023/10/29 06:58:16;;;;;;;7.95;6.90;;;;;;;9.10;83.02;98356.94;5108843;28;20051;-72
2023/10/29 07:00:43;;;;;;;9.60;7.03;;;;;;;9.12;83.29;98348.91;5108755;28;20050;-72
2023/10/29 07:03:10;;;;;;;10.38;8.70;;;;;;;8.59;83.42;98258.97;5108588;28;20044;-72
2023/10/29 07:05:36;;;;;;;9.38;8.32;;;;;;;9.06;83.32;98338.75;5108927;28;20040;-72
2023/10/29 07:08:03;;;;;;;12.68;10.32;;;;;;;9.06;83.58;98329.03;5108342;28;20345;-72
2023/10/29 07:10:30;;;;;;;10.70;9.23;;;;;;;9.03;84.03;98321.28;5108603;28;20052;-72
2023/10/29 07:12:57;;;;;;;9.38;7.88;;;;;;;9.18;83.11;98324.72;5108490;28;20040;-72
2023/10/29 07:15:25;;;;;;;9.65;8.23;;;;;;;9.10;83.35;98332.31;5108489;28;20047;-72
2023/10/29 07:17:52;;;;;;;11.48;8.48;;;;;;;9.22;82.80;98342.13;5108166;28;20056;-72
2023/10/29 07:20:18;;;;;;;10.27;8.05;;;;;;;9.23;82.68;98341.16;5107756;28;20237;-72
2023/10/29 07:22:45;;;;;;;12.40;9.80;;;;;;;9.32;82.06;98333.47;5108248;28;20089;-72
2023/10/29 07:25:12;;;;;;;11.75;9.23;;;;;;;9.36;81.85;98333.28;5108201;28;20254;-72
2023/10/29 07:27:39;;;;;;;11.70;9.13;;;;;;;9.38;81.76;98344.59;5108178;28;20177;-72
2023/10/29 07:30:07;;;;;;;11.10;8.52;;;;;;;9.32;82.27;98336.13;5108071;28;20059;-73
2023/10/29 07:32:36;;;;;;;11.20;9.65;;;;;;;9.37;82.16;98342.91;5107994;28;20310;-71
2023/10/29 07:35:03;;;;;;;11.07;8.90;;;;;;;9.31;82.61;98349.44;5108077;28;20067;-72
2023/10/29 07:37:30;;;;;;;11.57;9.65;;;;;;;9.31;82.61;98352.94;5106905;28;20363;-72
2023/10/29 07:39:56;;;;;;;11.70;7.63;;;;;;;9.34;82.31;98351.88;5106579;28;20050;-72
2023/10/29 07:42:24;;;;;;;13.38;9.75;;;;;;;9.24;83.35;98371.94;5107743;28;20036;-72
2023/10/29 07:44:51;;;;;;;10.68;9.40;;;;;;;9.30;82.75;98375.03;5107865;28;20081;-72
2023/10/29 07:47:19;;;;;;;10.88;8.57;;;;;;;9.31;82.60;98374.09;5108099;28;20048;-72
2023/10/29 07:49:47;;;;;;;11.80;9.55;;;;;;;9.29;83.09;98367.19;5107411;28;20115;-72
2023/10/29 07:52:13;;;;;;;14.55;9.38;;;;;;;9.37;82.34;98362.25;5107582;28;20035;-72
2023/10/29 07:54:41;;;;;;;11.50;8.88;;;;;;;9.33;82.37;98363.41;5107417;28;20047;-72
2023/10/29 07:57:07;;;;;;;11.95;9.70;;;;;;;9.32;82.76;98359.91;5107212;28;20115;-72
2023/10/29 07:59:34;;;;;;;13.00;10.45;;;;;;;9.23;83.20;98355.22;5107618;28;20063;-72
2023/10/29 08:02:01;;;;;;;13.15;10.32;;;;;;;9.31;82.65;98365.31;5107359;28;20044;-72
2023/10/29 08:04:28;;;;;;;14.32;10.50;;;;;;;9.30;82.76;98347.75;5107431;28;20044;-72
2023/10/29 08:06:56;;;;;;;15.90;11.70;;;;;;;9.31;83.07;98354.72;5106311;28;20044;-72
2023/10/29 08:09:23;;;;;;;14.73;10.65;;;;;;;9.35;83.07;98358.88;5106771;28;20040;-72
2023/10/29 08:11:50;;;;;;;13.45;11.63;;;;;;;9.31;82.98;98358.22;5107084;28;20050;-72
2023/10/29 08:14:16;;;;;;;17.63;12.10;;;;;;;9.35;83.47;98360.66;5107335;28;20063;-72
2023/10/29 08:16:43;;;;;;;14.20;10.38;;;;;;;9.41;82.51;98355.00;5107263;28;20063;-72
2023/10/29 08:19:10;;;;;;;13.63;11.18;;;;;;;9.42;82.83;98359.34;5106596;28;20043;-72
2023/10/29 08:21:37;;;;;;;13.45;11.27;;;;;;;9.27;84.51;98364.66;5106201;28;20059;-72
2023/10/29 08:24:06;;;;;;;17.08;13.07;;;;;;;9.24;85.44;98359.56;5107195;28;20048;-72
2023/10/29 08:26:33;;;;;;;16.02;12.43;;;;;;;9.23;85.49;98354.38;5105905;28;20304;-72
2023/10/29 08:29:00;;;;;;;13.82;11.75;;;;;;;9.28;85.11;98362.84;5107048;28;20096;-72
2023/10/29 08:31:27;;;;;;;13.43;11.57;;;;;;;9.30;85.10;98356.53;5106483;28;20051;-72
2023/10/29 08:33:54;;;;;;;14.68;12.40;;;;;;;9.40;84.12;98362.09;5106842;28;20055;-72
2023/10/29 08:36:21;;;;;;;16.50;12.65;;;;;;;9.39;84.43;98354.22;5106795;28;20219;-72
2023/10/29 08:38:48;;;;;;;15.38;12.95;;;;;;;9.43;84.06;98368.97;5107084;28;20051;-72
2023/10/29 08:41:17;;;;;;;16.10;12.57;;;;;;;9.42;84.57;98368.13;5106632;28;20089;-72
2023/10/29 08:43:43;;;;;;;19.02;15.70;;;;;;;8.62;85.14;98239.44;5107079;28;20051;-72
2023/10/29 08:46:09;;;;;;;17.80;15.23;;;;;;;9.39;85.02;98362.16;5105531;28;20319;-73
2023/10/29 08:48:35;;;;;;;18.92;16.15;;;;;;;9.33;85.78;98358.13;5107022;28;20040;-72
2023/10/29 08:51:02;;;;;;;18.15;15.88;;;;;;;9.31;86.46;98360.88;5105532;28;20204;-72
2023/10/29 08:53:28;;;;;;;18.77;16.50;;;;;;;9.40;85.43;98354.16;5105859;28;20054;-72
2023/10/29 08:55:55;;;;;;;18.38;16.45;;;;;;;9.34;86.24;98351.88;5106007;28;20055;-72
2023/10/29 08:58:23;;;;;;;16.05;13.93;;;;;;;9.39;86.13;98356.88;5107003;28;20048;-72
2023/10/29 09:00:51;;;;;;;18.67;14.90;;;;;;;9.48;84.93;98359.78;5106478;28;20047;-72
2023/10/29 09:03:18;;;;;;;15.63;13.85;;;;;;;9.48;85.31;98359.78;5106272;28;20040;-73
2023/10/29 09:05:46;;;;;;;16.50;14.15;;;;;;;9.52;85.09;98350.69;5106374;28;20040;-72
2023/10/29 09:08:13;;;;;;;15.30;13.55;;;;;;;9.52;84.74;98350.69;5105999;28;20047;-72
2023/10/29 09:10:42;;;;;;;17.83;14.68;;;;;;;9.50;85.36;98339.38;5105408;28;20390;-73
2023/10/29 09:13:09;;;;;;;16.73;14.45;;;;;;;9.51;85.48;98335.78;5105510;28;20207;-72
2023/10/29 09:15:38;;;;;;;16.23;14.52;;;;;;;9.50;86.01;98336.72;5106171;28;20052;-72
2023/10/29 09:18:05;;;;;;;15.85;14.10;;;;;;;7.60;86.19;98019.13;5106395;28;20090;-72
2023/10/29 09:20:32;;;;;;;18.17;16.27;;;;;;;9.48;86.74;98335.13;5106088;28;20044;-72
2023/10/29 09:22:59;;;;;;;15.20;13.63;;;;;;;9.45;86.71;98343.28;5106069;28;20203;-72
2023/10/29 09:25:26;;;;;;;16.98;15.18;;;;;;;9.45;87.01;98337.97;5105773;28;20040;-72
2023/10/29 09:27:53;;;;;;;16.13;14.02;;;;;;;9.41;87.26;98332.06;5106164;28;20044;-73
2023/10/29 09:30:19;;;;;;;14.25;12.75;;;;;;;9.48;87.01;98332.47;5104562;28;20052;-73
2023/10/29 09:32:48;;;;;;;15.32;13.77;;;;;;;9.51;86.73;98333.13;5105740;28;20047;-72
2023/10/29 09:35:15;;;;;;;14.40;12.95;;;;;;;9.54;86.97;98335.56;5105687;28;20093;-72
2023/10/29 09:37:43;;;;;;;18.10;14.50;;;;;;;9.49;86.96;98331.53;5105665;28;20052;-72
2023/10/29 09:40:13;;;;;;;16.05;13.77;;;;;;;9.49;87.14;98328.91;5105905;28;20044;-73
2023/10/29 09:42:50;;;;;;;15.50;11.88;;;;;;;9.52;86.85;98331.34;5104719;28;20051;-72
2023/10/29 09:45:18;;;;;;;13.13;10.80;;;;;;;9.55;86.65;98336.41;5105891;28;20089;-72
2023/10/29 09:47:45;;;;;;;11.32;10.15;;;;;;;9.37;86.62;98314.66;5105580;28;20294;-72
2023/10/29 09:50:14;;;;;;;11.23;9.98;;;;;;;9.58;86.39;98354.72;5105119;28;20119;-72
2023/10/29 09:52:42;;;;;;;11.65;10.48;;;;;;;9.44;86.44;98323.06;5105397;28;20040;-72
2023/10/29 09:55:10;;;;;;;11.70;9.98;;;;;;;9.65;86.54;98339.28;5105947;28;20043;-72
2023/10/29 09:57:37;;;;;;;12.50;10.40;;;;;;;9.69;86.13;98336.34;5105464;28;20311;-72
2023/10/29 10:00:06;;;;;;;11.60;10.50;;;;;;;9.60;86.23;98332.50;5105305;28;20054;-72
2023/10/29 10:02:32;;;;;;;13.60;11.68;;;;;;;9.65;85.96;98336.66;5104264;28;20071;-71
2023/10/29 10:05:01;;;;;;;11.15;10.05;;;;;;;9.48;85.66;98298.09;5109112;28;20099;-72
2023/10/29 10:07:31;;;;;;;11.95;10.70;;;;;;;9.73;85.85;98329.88;5108530;28;20304;-72
2023/10/29 10:09:58;;;;;;;10.93;9.90;;;;;;;9.77;85.46;98338.47;5109380;28;20044;-72
2023/10/29 10:12:25;;;;;;;12.80;11.50;;;;;;;9.75;85.73;98324.50;5108521;28;20032;-71
2023/10/29 10:14:53;;;;;;;11.30;10.15;;;;;;;9.73;86.21;98326.38;5109575;28;20044;-71
2023/10/29 10:17:19;;;;;;;11.63;10.52;;;;;;;9.72;86.54;98327.34;5109561;28;20050;-71
2023/10/29 10:19:46;;;;;;;12.32;11.02;;;;;;;8.69;86.34;98158.84;5109329;28;20196;-72
2023/10/29 10:22:13;;;;;;;11.57;10.48;;;;;;;9.72;86.70;98317.59;5109361;28;20043;-72
2023/10/29 10:24:44;;;;;;;10.63;9.63;;;;;;;9.84;86.44;98322.06;5108282;28;20040;-72
2023/10/29 10:27:11;;;;;;;9.93;8.98;;;;;;;8.16;86.06;98031.25;5108259;28;20120;-72
2023/10/29 10:29:38;;;;;;;9.95;9.05;;;;;;;9.88;86.34;98312.13;5108676;28;20106;-72
2023/10/29 10:32:08;;;;;;;12.23;10.85;;;;;;;9.18;85.83;98189.91;5109383;28;20101;-71
2023/10/29 10:34:37;;;;;;;13.68;12.27;;;;;;;9.95;85.99;98324.81;5109180;28;20311;-72
2023/10/29 10:37:04;;;;;;;15.63;14.00;;;;;;;9.97;85.50;98323.88;5109208;28;20315;-72
2023/10/29 10:39:32;;;;;;;16.30;14.55;;;;;;;9.97;85.54;98318.56;5107847;28;20043;-72
2023/10/29 10:42:02;;;;;;;15.48;13.90;;;;;;;10.01;85.69;98312.13;5109370;28;20063;-72
2023/10/29 10:44:30;;;;;;;12.55;11.30;;;;;;;10.04;85.82;98307.44;5109216;28;20044;-72
2023/10/29 10:46:59;;;;;;;11.98;10.77;;;;;;;10.05;85.62;98303.84;5108603;28;20060;-72
2023/10/29 10:49:30;;;;;;;11.70;10.52;;;;;;;10.07;85.69;98309.88;5108895;28;20317;-72
2023/10/29 10:51:59;;;;;;;11.95;10.20;;;;;;;10.10;85.38;98304.38;5108449;28;20040;-72
2023/10/29 10:54:27;;;;;;;13.68;10.10;;;;;;;10.19;85.22;98305.53;5108800;28;20101;-72
2023/10/29 10:56:56;;;;;;;9.73;8.60;;;;;;;10.21;85.27;98304.47;5108711;28;20086;-72
2023/10/29 10:59:24;;;;;;;8.73;7.82;;;;;;;10.31;84.79;98299.38;5107940;28;20044;-72
2023/10/29 11:01:51;;;;;;;9.65;8.35;;;;;;;10.32;84.81;98285.19;5108692;28;20111;-72
2023/10/29 11:04:19;;;;;;;10.68;8.43;;;;;;;6.78;85.06;97685.41;5108582;28;20043;-72
2023/10/29 11:06:46;;;;;;;9.30;8.02;;;;;;;10.41;85.23;98283.69;5108278;28;20058;-72
2023/10/29 11:09:17;;;;;;;8.82;7.28;;;;;;;10.52;85.20;98274.00;5108777;28;20040;-72
2023/10/29 11:11:46;;;;;;;8.65;6.60;;;;;;;10.59;85.18;98267.31;5108211;28;20046;-72
2023/10/29 11:14:15;;;;;;;7.82;7.00;;;;;;;10.62;84.71;98263.59;5107331;28;20040;-72
2023/10/29 11:16:51;;;;;;;8.88;7.97;;;;;;;10.73;84.54;98268.97;5107852;28;20227;-72
2023/10/29 11:19:46;;;;;;;8.63;7.03;;;;;;;10.81;84.38;98265.78;5107249;28;20039;-72
2023/10/29 11:22:17;;;;;;;9.60;7.15;;;;;;;10.87;83.82;98254.72;5107109;28;20100;-72
2023/10/29 11:24:45;;;;;;;9.73;7.97;;;;;;;10.95;83.99;98236.44;5108246;28;20047;-72
2023/10/29 11:27:34;;;;;;;9.00;7.63;;;;;;;11.06;83.16;98231.19;5108159;28;20044;-72
2023/10/29 11:30:10;;;;;;;10.23;6.95;;;;;;;11.15;83.28;98232.31;5107475;28;20216;-72
2023/10/29 11:32:39;;;;;;;8.88;7.57;;;;;;;11.21;82.96;98221.25;5108143;28;20048;-71
2023/10/29 11:35:24;;;;;;;8.80;7.88;;;;;;;11.32;82.77;98220.41;5106993;28;20044;-72